createdAt,value
2022-10-17T00:02:43.755Z,8.04
2022-10-17T00:07:47.359Z,8.02
2022-10-17T00:12:51.930Z,8.01
2022-10-17T00:17:54.986Z,7.92
2022-10-17T00:22:58.145Z,7.80
2022-10-17T00:28:01.560Z,7.76
2022-10-17T00:33:05.577Z,7.74
2022-10-17T00:38:08.994Z,7.70
2022-10-17T00:43:18.846Z,7.60
2022-10-17T00:48:25.351Z,7.55
2022-10-17T00:53:29.267Z,7.60
2022-10-17T00:58:33.246Z,7.55
2022-10-17T01:03:36.492Z,7.46
2022-10-17T01:08:40.311Z,7.40
2022-10-17T01:13:50.676Z,7.31
2022-10-17T01:19:13.107Z,7.31
2022-10-17T01:24:41.275Z,7.28
2022-10-17T01:29:48.409Z,7.51
2022-10-17T01:35:09.491Z,7.51
2022-10-17T01:40:21.536Z,7.40
2022-10-17T01:45:41.597Z,7.33
2022-10-17T01:50:57.192Z,7.22
2022-10-17T01:56:03.501Z,7.25
2022-10-17T02:01:08.993Z,7.21
2022-10-17T02:06:12.226Z,7.20
2022-10-17T02:11:22.135Z,7.16
2022-10-17T02:16:53.619Z,7.25
2022-10-17T02:22:07.206Z,7.12
2022-10-17T02:27:17.398Z,7.05
2022-10-17T02:32:41.149Z,7.06
2022-10-17T02:37:46.296Z,7.01
2022-10-17T02:42:52.227Z,6.92
2022-10-17T02:48:05.373Z,6.89
2022-10-17T02:53:16.642Z,6.84
2022-10-17T02:58:29.274Z,6.80
2022-10-17T03:03:33.672Z,6.74
2022-10-17T03:13:46.297Z,6.60
2022-10-17T03:18:50.361Z,6.54
2022-10-17T03:23:54.520Z,6.50
2022-10-17T03:28:58.950Z,6.54
2022-10-17T03:34:04.710Z,6.54
2022-10-17T03:39:09.064Z,6.63
2022-10-17T03:44:12.253Z,6.55
2022-10-17T03:49:15.896Z,6.46
2022-10-17T03:54:19.902Z,6.44
2022-10-17T03:59:23.633Z,6.44
2022-10-17T04:04:36.975Z,6.38
2022-10-17T04:09:40.817Z,6.33
2022-10-17T04:14:50.280Z,6.29
2022-10-17T04:19:53.771Z,6.40
2022-10-17T04:24:59.367Z,6.36
2022-10-17T04:30:18.800Z,6.28
2022-10-17T04:35:22.628Z,6.46
2022-10-17T04:40:33.492Z,6.38
2022-10-17T04:45:38.900Z,6.26
2022-10-17T04:50:53.041Z,6.27
2022-10-17T04:56:20.013Z,6.24
2022-10-17T05:01:25.405Z,6.22
2022-10-17T05:06:31.758Z,6.25
2022-10-17T05:11:54.904Z,6.30
2022-10-17T05:16:59.746Z,6.34
2022-10-17T05:22:05.795Z,6.59
2022-10-17T05:27:09.596Z,6.74
2022-10-17T05:32:13.009Z,6.84
2022-10-17T05:37:17.025Z,6.96
2022-10-17T05:42:27.836Z,7.16
2022-10-17T05:47:33.005Z,7.46
2022-10-17T05:52:37.465Z,7.72
2022-10-17T05:57:48.404Z,7.97
2022-10-17T06:02:55.018Z,8.34
2022-10-17T06:08:01.934Z,8.97
2022-10-17T06:13:09.280Z,13.36
2022-10-17T06:18:13.265Z,18.05
2022-10-17T06:23:17.959Z,20.86
2022-10-17T06:28:44.089Z,22.78
2022-10-17T06:33:48.158Z,24.21
2022-10-17T06:38:52.603Z,25.32
2022-10-17T06:44:11.399Z,26.18
2022-10-17T06:49:14.897Z,25.14
2022-10-17T06:54:36.339Z,26.38
2022-10-17T07:00:04.656Z,26.92
2022-10-17T07:05:14.635Z,26.47
2022-10-17T07:10:18.785Z,25.41
2022-10-17T07:15:21.840Z,25.22
2022-10-17T07:20:25.662Z,26.42
2022-10-17T07:25:30.079Z,26.54
2022-10-17T07:30:36.969Z,25.70
2022-10-17T07:35:45.052Z,25.94
2022-10-17T07:40:55.472Z,24.87
2022-10-17T07:45:59.026Z,25.53
2022-10-17T07:51:04.613Z,25.41
2022-10-17T07:56:09.925Z,25.53
2022-10-17T08:01:15.857Z,25.76
2022-10-17T08:06:20.127Z,25.15
2022-10-17T08:11:25.562Z,25.03
2022-10-17T08:16:28.823Z,26.09
2022-10-17T08:21:32.464Z,25.84
2022-10-17T08:26:39.278Z,25.08
2022-10-17T08:31:47.844Z,25.47
2022-10-17T08:36:52.588Z,26.08
2022-10-17T08:42:42.040Z,25.84
2022-10-17T08:47:49.147Z,25.73
2022-10-17T08:52:56.765Z,26.20
2022-10-17T08:58:00.714Z,26.57
2022-10-17T09:03:27.017Z,25.30
2022-10-17T09:08:51.347Z,26.43
2022-10-17T09:14:04.007Z,26.60
2022-10-17T09:19:21.413Z,26.08
2022-10-17T09:24:55.950Z,26.72
2022-10-17T09:30:21.504Z,27.22
2022-10-17T09:35:42.203Z,26.04
2022-10-17T09:40:53.715Z,26.36
2022-10-17T09:46:22.785Z,25.68
2022-10-17T09:51:27.317Z,23.62
2022-10-17T09:56:30.690Z,24.92
2022-10-17T10:01:35.155Z,25.49
2022-10-17T10:06:39.374Z,25.23
2022-10-17T10:11:55.883Z,25.78
2022-10-17T10:17:01.659Z,26.51
2022-10-17T10:22:07.241Z,27.04
2022-10-17T10:27:16.216Z,23.98
2022-10-17T10:32:24.278Z,25.40
2022-10-17T10:37:34.167Z,25.45
2022-10-17T10:42:39.983Z,23.95
2022-10-17T10:47:53.046Z,24.50
2022-10-17T10:53:26.274Z,24.17
2022-10-17T10:58:47.790Z,23.34
2022-10-17T11:04:02.140Z,23.88
2022-10-17T11:09:14.973Z,25.10
2022-10-17T11:14:25.044Z,23.41
2022-10-17T11:20:03.731Z,23.95
2022-10-17T11:25:41.039Z,24.24
2022-10-17T11:30:52.434Z,23.02
2022-10-17T11:36:01.984Z,23.36
2022-10-17T11:41:09.402Z,23.64
2022-10-17T11:46:25.220Z,23.82
2022-10-17T11:56:56.838Z,24.09
2022-10-17T12:02:09.279Z,23.63
2022-10-17T12:07:23.102Z,24.13
2022-10-17T12:12:34.684Z,25.23
2022-10-17T12:17:41.175Z,24.86
2022-10-17T12:22:48.932Z,25.80
2022-10-17T12:28:13.608Z,25.78
2022-10-17T12:33:22.810Z,26.61
2022-10-17T12:38:28.392Z,26.47
2022-10-17T12:43:32.021Z,25.94
2022-10-17T12:48:35.692Z,25.12
2022-10-17T12:54:02.599Z,24.62
2022-10-17T12:59:15.090Z,25.16
2022-10-17T13:04:20.031Z,25.94
2022-10-17T13:09:28.805Z,25.94
2022-10-17T13:14:34.763Z,26.32
2022-10-17T13:19:45.938Z,25.84
2022-10-17T13:24:51.438Z,26.27
2022-10-17T13:29:57.135Z,26.10
2022-10-17T13:35:11.218Z,26.03
2022-10-17T13:40:44.171Z,25.32
2022-10-17T13:45:50.785Z,25.61
2022-10-17T13:51:00.464Z,25.03
2022-10-17T13:56:27.750Z,25.27
2022-10-17T14:01:33.198Z,26.19
2022-10-17T14:06:46.385Z,26.30
2022-10-17T14:12:01.281Z,26.25
2022-10-17T14:17:15.289Z,25.97
2022-10-17T14:22:21.521Z,26.41
2022-10-17T14:27:38.323Z,26.67
2022-10-17T14:32:43.963Z,25.63
2022-10-17T14:37:50.250Z,25.38
2022-10-17T14:42:57.171Z,25.50
2022-10-17T14:48:21.809Z,24.90
2022-10-17T14:53:28.477Z,24.75
2022-10-17T14:58:33.586Z,24.40
2022-10-17T15:03:37.068Z,24.13
2022-10-17T15:08:40.550Z,22.94
2022-10-17T15:13:45.740Z,23.22
2022-10-17T15:18:48.874Z,22.75
2022-10-17T15:23:52.096Z,21.65
2022-10-17T15:28:55.856Z,21.15
2022-10-17T15:33:58.897Z,20.78
2022-10-17T15:39:02.717Z,20.46
2022-10-17T15:44:05.967Z,20.05
2022-10-17T15:49:17.416Z,19.40
2022-10-17T15:54:20.483Z,18.56
2022-10-17T15:59:34.905Z,17.85
2022-10-17T16:04:37.979Z,17.26
2022-10-17T16:09:46.436Z,16.58
2022-10-17T16:14:49.976Z,16.10
2022-10-17T16:19:53.739Z,15.63
2022-10-17T16:24:59.814Z,15.31
2022-10-17T16:30:06.569Z,15.03
2022-10-17T16:35:10.658Z,14.83
2022-10-17T16:40:15.181Z,14.50
2022-10-17T16:45:22.865Z,14.31
2022-10-17T16:50:26.385Z,14.13
2022-10-17T16:55:29.459Z,14.11
2022-10-17T17:00:33.559Z,13.83
2022-10-17T17:05:37.383Z,13.66
2022-10-17T17:10:46.079Z,13.60
2022-10-17T17:15:53.862Z,13.55
2022-10-17T17:21:01.702Z,13.38
2022-10-17T17:26:12.637Z,13.21
2022-10-17T17:31:18.990Z,13.20
2022-10-17T17:36:31.175Z,13.14
2022-10-17T17:41:35.535Z,13.03
2022-10-17T17:46:39.759Z,12.99
2022-10-17T17:51:46.490Z,12.84
2022-10-17T17:56:49.720Z,12.69
2022-10-17T18:01:53.206Z,12.46
2022-10-17T18:06:56.477Z,12.29
2022-10-17T18:12:00.093Z,12.14
2022-10-17T18:17:03.553Z,12.02
2022-10-17T18:22:07.046Z,11.89
2022-10-17T18:27:12.925Z,11.75
2022-10-17T18:32:16.456Z,11.73
2022-10-17T18:37:20.446Z,11.73
2022-10-17T18:42:24.291Z,11.64
2022-10-17T18:47:27.541Z,11.56
2022-10-17T18:52:31.322Z,11.49
2022-10-17T18:57:35.034Z,11.37
2022-10-17T19:02:38.534Z,11.25
2022-10-17T19:07:42.116Z,11.21
2022-10-17T19:12:45.108Z,11.20
2022-10-17T19:17:48.587Z,11.13
2022-10-17T19:28:02.124Z,11.03
2022-10-17T19:33:06.058Z,10.91
2022-10-17T19:38:08.975Z,10.81
2022-10-17T19:43:12.322Z,10.81
2022-10-17T19:48:15.365Z,10.79
2022-10-17T19:53:19.837Z,10.74
2022-10-17T19:58:24.879Z,10.67
2022-10-17T20:03:28.592Z,10.62
2022-10-17T20:08:32.593Z,10.61
2022-10-17T20:13:37.005Z,10.51
2022-10-17T20:18:42.160Z,10.38
2022-10-17T20:23:47.945Z,10.27
2022-10-17T20:28:51.052Z,10.23
2022-10-17T20:33:56.049Z,10.19
2022-10-17T20:39:00.180Z,10.09
2022-10-17T20:44:03.676Z,10.14
2022-10-17T20:49:08.411Z,10.07
2022-10-17T20:54:12.055Z,10.08
2022-10-17T20:59:17.602Z,9.92
2022-10-17T21:04:44.918Z,9.86
2022-10-17T21:09:46.536Z,9.87
2022-10-17T21:14:50.411Z,9.75
2022-10-17T21:19:54.243Z,9.70
2022-10-17T21:24:57.678Z,9.67
2022-10-17T21:30:01.424Z,9.59
2022-10-17T21:35:04.883Z,9.50
2022-10-17T21:40:09.224Z,9.48
2022-10-17T21:45:15.730Z,9.42
2022-10-17T21:50:23.648Z,9.33
2022-10-17T21:55:27.130Z,9.25
2022-10-17T22:00:31.879Z,9.18
2022-10-17T22:05:35.976Z,9.11
2022-10-17T22:10:40.909Z,9.08
2022-10-17T22:15:43.902Z,8.99
2022-10-17T22:20:47.947Z,8.95
2022-10-17T22:25:57.642Z,8.96
2022-10-17T22:31:03.739Z,8.96
2022-10-17T22:36:08.714Z,8.97
2022-10-17T22:41:12.177Z,8.96
2022-10-17T22:46:17.423Z,8.98
2022-10-17T22:51:21.450Z,9.03
2022-10-17T22:56:25.247Z,8.96
2022-10-17T23:01:28.375Z,8.97
2022-10-17T23:06:31.891Z,8.89
2022-10-17T23:11:34.814Z,8.81
2022-10-17T23:16:38.216Z,8.85
2022-10-17T23:21:41.626Z,8.77
2022-10-17T23:26:44.574Z,8.76
2022-10-17T23:31:48.292Z,8.77
2022-10-17T23:36:53.167Z,8.77
2022-10-17T23:41:56.729Z,8.77
2022-10-17T23:47:00.230Z,8.77
2022-10-17T23:52:03.652Z,8.71
2022-10-17T23:57:06.987Z,8.66
